Coto de Caza, California
Current Conditions -  °F | °C
As of 12:53 PM on Tuesday 27 Jan 2015 (Local Time) from KSNA Reporting Station
Scattered Clouds Scattered Clouds  
Wind Chill: 74°   Ceiling: Unl
Heat Index: 74°   Visibility: 10mi
Dew Point: 46°   Wind: 3mph
Humidity: 37%   Direction: NA
Pressure: 30.14"   Gusts: NA
Location:  33.6153°N, 117.532°W
Report Text: KSNA 272053Z VRB03KT 10SM FEW080 SCT300 23/08 A3014 RMK AO2 SLP206 T02330078 58017
Loading
Personal Weather Stations






























Interactive Weather Map New forecast layout! Learn more

10-Day Weather Forecast

Advertisements
Track Severe Weather on mobile